PMDY Airport Information

Runway Information
Runway 06 Length 7904 ft width 200 ft
Elevation 13 ft Threshold 0 ft Heading 69
Runway 24 Length 7904 ft Width 200 ft
Elevation 7 ft Threshold 0 ft Heading 249
Runway 15 Length 0 ft width 0 ft
Elevation 6 ft Threshold 0 ft Heading 0
Runway 33 Length 0 ft Width 0 ft
Elevation 7 ft Threshold 0 ft Heading 0
Airport Frequencies
Type AWOS Name AWOS 3 Frequency 118.325 MHZ
Type CTAF Name CTAF Frequency 122.9 MHZ
Type RDO Name RDO Frequency 126.2 MHZ
Airport Navaids
Type NDB Name Midway Frequency 400 KHZ
Airport Weather Information & NOTAM
ADDS - METARS form results

(1440 UTC 22 July 2018)
 
METAR text: PMDY 221422Z AUTO 07015KT 10SM FEW019 24/21 A3010 RMK AO2
Conditions at: PMDY (MIDWAY ISLAND NA, HI, US) observed 1422 UTC 22 July 2018
Temperature: 24.0°C (75°F)
Dewpoint: 21.0°C (70°F) [RH = 83%]
Pressure (altimeter): 30.10 inches Hg (1019.4 mb)
Winds: from the ENE (70 degrees) at 17 MPH (15 knots; 7.8 m/s)
Visibility: 10 or more miles (16+ km)
Ceiling: at least 12,000 feet AGL
Clouds: few clouds at 1900 feet AGL
Weather: automated observation with no human augmentation;
there may or may not be significant weather present at this time

METAR text: PMDY 221356Z AUTO 07017KT 10SM BKN019 24/22 A3011 RMK AO2 RAE1257 SLP194 T02390217
Conditions at: PMDY (MIDWAY ISLAND NA, HI, US) observed 1356 UTC 22 July 2018
Temperature: 23.9°C (75°F)
Dewpoint: 21.7°C (71°F) [RH = 88%]
Pressure (altimeter): 30.11 inches Hg (1019.7 mb)
[Sea-level pressure: 1019.4 mb]
Winds: from the ENE (70 degrees) at 20 MPH (17 knots; 8.8 m/s)
Visibility: 10 or more miles (16+ km)
Ceiling: 1900 feet AGL
Clouds: broken clouds at 1900 feet AGL
Weather: automated observation with no human augmentation;
there may or may not be significant weather present at this time

METAR text: PMDY 221341Z AUTO 07016KT 10SM SCT021 24/21 A3011 RMK AO2 RAE1257
Conditions at: PMDY (MIDWAY ISLAND NA, HI, US) observed 1341 UTC 22 July 2018
Temperature: 24.0°C (75°F)
Dewpoint: 21.0°C (70°F) [RH = 83%]
Pressure (altimeter): 30.11 inches Hg (1019.7 mb)
Winds: from the ENE (70 degrees) at 18 MPH (16 knots; 8.3 m/s)
Visibility: 10 or more miles (16+ km)
Ceiling: at least 12,000 feet AGL
Clouds: scattered clouds at 2100 feet AGL
Weather: automated observation with no human augmentation;
there may or may not be significant weather present at this time